Rio Branco, Brazil
Current Conditions -  °F | °C
As of 8:15 PM on Saturday 22 Nov 2014 (Local Time) from SBCY Reporting Station
Thunderstorm Thunderstorm  
Wind Chill: 75°   Ceiling: 1200
Heat Index: 75°   Visibility: 0.93mi
Dew Point: 70°   Wind: 18mph
Humidity: 83%   Direction: 240°WSW
Pressure: 29.88"   Gusts: NA
Location:  15.24°S, 58.12°W
Report Text: SBCY 222315Z 24016KT 1500 +TSRA BKN012 FEW025CB BKN070 24/21 Q1012
Loading
Personal Weather Stations






























Interactive Weather Map New forecast layout! Learn more

10-Day Weather Forecast

Advertisements
Track Severe Weather on mobile